sensor_id;sensor_type;location;lat;lon;timestamp;P1;durP1;ratioP1;P2;durP2;ratioP2
6979;SDS011;3530;52.832;10.680;2024-02-15T00:02:37;2.78;;;2.63;;
6979;SDS011;3530;52.832;10.680;2024-02-15T00:05:22;3.20;;;2.92;;
6979;SDS011;3530;52.832;10.680;2024-02-15T00:08:09;2.65;;;2.45;;
6979;SDS011;3530;52.832;10.680;2024-02-15T00:10:55;2.70;;;2.50;;
6979;SDS011;3530;52.832;10.680;2024-02-15T00:13:41;2.53;;;2.42;;
6979;SDS011;3530;52.832;10.680;2024-02-15T00:16:26;2.90;;;2.70;;
6979;SDS011;3530;52.832;10.680;2024-02-15T00:19:12;3.25;;;2.95;;
6979;SDS011;3530;52.832;10.680;2024-02-15T00:22:02;3.53;;;3.22;;
6979;SDS011;3530;52.832;10.680;2024-02-15T00:24:48;3.70;;;3.40;;
6979;SDS011;3530;52.832;10.680;2024-02-15T00:27:36;3.00;;;2.80;;
6979;SDS011;3530;52.832;10.680;2024-02-15T00:30:22;3.72;;;3.42;;
6979;SDS011;3530;52.832;10.680;2024-02-15T00:33:08;3.75;;;3.53;;
6979;SDS011;3530;52.832;10.680;2024-02-15T00:35:53;2.83;;;2.70;;
6979;SDS011;3530;52.832;10.680;2024-02-15T00:38:39;3.63;;;3.33;;
6979;SDS011;3530;52.832;10.680;2024-02-15T00:41:25;4.15;;;3.80;;
6979;SDS011;3530;52.832;10.680;2024-02-15T00:44:10;4.40;;;4.00;;
6979;SDS011;3530;52.832;10.680;2024-02-15T00:46:56;3.55;;;3.25;;
6979;SDS011;3530;52.832;10.680;2024-02-15T00:49:42;3.30;;;3.10;;
6979;SDS011;3530;52.832;10.680;2024-02-15T00:52:27;3.90;;;3.55;;
6979;SDS011;3530;52.832;10.680;2024-02-15T00:55:14;4.13;;;3.80;;
6979;SDS011;3530;52.832;10.680;2024-02-15T00:58:00;4.00;;;3.60;;
6979;SDS011;3530;52.832;10.680;2024-02-15T01:00:45;3.95;;;3.63;;
6979;SDS011;3530;52.832;10.680;2024-02-15T01:03:31;3.10;;;2.85;;
6979;SDS011;3530;52.832;10.680;2024-02-15T01:06:17;2.85;;;2.72;;
6979;SDS011;3530;52.832;10.680;2024-02-15T01:09:03;4.53;;;4.13;;
6979;SDS011;3530;52.832;10.680;2024-02-15T01:11:49;4.28;;;3.88;;
6979;SDS011;3530;52.832;10.680;2024-02-15T01:14:34;7.32;;;6.10;;
6979;SDS011;3530;52.832;10.680;2024-02-15T01:17:20;5.30;;;4.75;;
6979;SDS011;3530;52.832;10.680;2024-02-15T01:20:06;3.38;;;3.13;;
6979;SDS011;3530;52.832;10.680;2024-02-15T01:22:52;4.70;;;4.25;;
6979;SDS011;3530;52.832;10.680;2024-02-15T01:25:38;4.00;;;3.70;;
6979;SDS011;3530;52.832;10.680;2024-02-15T01:28:25;6.72;;;5.68;;
6979;SDS011;3530;52.832;10.680;2024-02-15T01:31:10;5.95;;;5.32;;
6979;SDS011;3530;52.832;10.680;2024-02-15T01:33:56;6.47;;;5.57;;
6979;SDS011;3530;52.832;10.680;2024-02-15T01:36:42;4.63;;;4.22;;
6979;SDS011;3530;52.832;10.680;2024-02-15T01:39:28;5.50;;;4.25;;
6979;SDS011;3530;52.832;10.680;2024-02-15T01:42:13;5.05;;;4.55;;
6979;SDS011;3530;52.832;10.680;2024-02-15T01:44:59;4.95;;;4.50;;
6979;SDS011;3530;52.832;10.680;2024-02-15T01:47:45;7.43;;;5.93;;
6979;SDS011;3530;52.832;10.680;2024-02-15T01:50:31;9.05;;;6.75;;
6979;SDS011;3530;52.832;10.680;2024-02-15T01:53:18;8.07;;;6.63;;
6979;SDS011;3530;52.832;10.680;2024-02-15T01:56:04;11.05;;;7.07;;
6979;SDS011;3530;52.832;10.680;2024-02-15T01:58:50;8.60;;;6.03;;
6979;SDS011;3530;52.832;10.680;2024-02-15T02:01:36;6.45;;;5.30;;
6979;SDS011;3530;52.832;10.680;2024-02-15T02:04:22;6.95;;;5.80;;
6979;SDS011;3530;52.832;10.680;2024-02-15T02:07:08;8.82;;;6.93;;
6979;SDS011;3530;52.832;10.680;2024-02-15T02:09:54;8.82;;;6.63;;
6979;SDS011;3530;52.832;10.680;2024-02-15T02:12:39;9.77;;;6.55;;
6979;SDS011;3530;52.832;10.680;2024-02-15T02:15:25;10.07;;;7.25;;
6979;SDS011;3530;52.832;10.680;2024-02-15T02:18:11;8.55;;;6.43;;
6979;SDS011;3530;52.832;10.680;2024-02-15T02:20:56;8.95;;;6.20;;
6979;SDS011;3530;52.832;10.680;2024-02-15T02:23:42;10.77;;;7.55;;
6979;SDS011;3530;52.832;10.680;2024-02-15T02:26:28;11.73;;;7.78;;
6979;SDS011;3530;52.832;10.680;2024-02-15T02:29:16;9.70;;;7.30;;
6979;SDS011;3530;52.832;10.680;2024-02-15T02:32:01;10.18;;;8.00;;
6979;SDS011;3530;52.832;10.680;2024-02-15T02:34:47;8.43;;;6.68;;
6979;SDS011;3530;52.832;10.680;2024-02-15T02:37:33;10.77;;;8.40;;
6979;SDS011;3530;52.832;10.680;2024-02-15T02:40:22;11.88;;;8.48;;
6979;SDS011;3530;52.832;10.680;2024-02-15T02:43:08;9.55;;;7.68;;
6979;SDS011;3530;52.832;10.680;2024-02-15T02:45:54;11.60;;;7.75;;
6979;SDS011;3530;52.832;10.680;2024-02-15T02:48:40;8.38;;;7.30;;
6979;SDS011;3530;52.832;10.680;2024-02-15T02:51:26;11.00;;;8.30;;
6979;SDS011;3530;52.832;10.680;2024-02-15T02:54:12;13.25;;;9.02;;
6979;SDS011;3530;52.832;10.680;2024-02-15T02:57:00;15.40;;;10.13;;
6979;SDS011;3530;52.832;10.680;2024-02-15T02:59:46;9.00;;;7.38;;
6979;SDS011;3530;52.832;10.680;2024-02-15T03:02:32;10.25;;;8.20;;
6979;SDS011;3530;52.832;10.680;2024-02-15T03:05:18;10.30;;;7.82;;
6979;SDS011;3530;52.832;10.680;2024-02-15T03:08:06;9.85;;;7.45;;
6979;SDS011;3530;52.832;10.680;2024-02-15T03:10:53;8.52;;;7.30;;
6979;SDS011;3530;52.832;10.680;2024-02-15T03:13:39;11.35;;;9.20;;
6979;SDS011;3530;52.832;10.680;2024-02-15T03:16:25;13.57;;;8.07;;
6979;SDS011;3530;52.832;10.680;2024-02-15T03:19:12;12.02;;;8.70;;
6979;SDS011;3530;52.832;10.680;2024-02-15T03:21:58;13.02;;;8.88;;
6979;SDS011;3530;52.832;10.680;2024-02-15T03:24:44;11.70;;;7.43;;
6979;SDS011;3530;52.832;10.680;2024-02-15T03:27:29;8.35;;;7.47;;
6979;SDS011;3530;52.832;10.680;2024-02-15T03:30:15;13.43;;;9.00;;
6979;SDS011;3530;52.832;10.680;2024-02-15T03:33:01;12.05;;;8.73;;
6979;SDS011;3530;52.832;10.680;2024-02-15T03:35:50;11.98;;;7.95;;
6979;SDS011;3530;52.832;10.680;2024-02-15T03:38:36;10.48;;;7.82;;
6979;SDS011;3530;52.832;10.680;2024-02-15T03:41:22;10.73;;;7.93;;
6979;SDS011;3530;52.832;10.680;2024-02-15T03:44:08;9.43;;;7.47;;
6979;SDS011;3530;52.832;10.680;2024-02-15T03:46:54;11.07;;;8.02;;
6979;SDS011;3530;52.832;10.680;2024-02-15T03:49:43;9.93;;;7.28;;
6979;SDS011;3530;52.832;10.680;2024-02-15T03:52:29;9.30;;;6.90;;
6979;SDS011;3530;52.832;10.680;2024-02-15T03:55:17;10.15;;;7.55;;
6979;SDS011;3530;52.832;10.680;2024-02-15T03:58:03;12.27;;;8.77;;
6979;SDS011;3530;52.832;10.680;2024-02-15T04:00:48;10.90;;;8.20;;
6979;SDS011;3530;52.832;10.680;2024-02-15T04:03:34;13.15;;;7.70;;
6979;SDS011;3530;52.832;10.680;2024-02-15T04:06:20;12.63;;;8.00;;
6979;SDS011;3530;52.832;10.680;2024-02-15T04:09:05;9.80;;;6.70;;
6979;SDS011;3530;52.832;10.680;2024-02-15T04:11:52;7.28;;;6.35;;
6979;SDS011;3530;52.832;10.680;2024-02-15T04:14:38;9.15;;;6.65;;
6979;SDS011;3530;52.832;10.680;2024-02-15T04:17:24;9.23;;;7.18;;
6979;SDS011;3530;52.832;10.680;2024-02-15T04:20:09;7.78;;;6.40;;
6979;SDS011;3530;52.832;10.680;2024-02-15T04:22:57;9.63;;;7.15;;
6979;SDS011;3530;52.832;10.680;2024-02-15T04:25:45;7.43;;;5.97;;
6979;SDS011;3530;52.832;10.680;2024-02-15T04:28:36;9.45;;;7.35;;
6979;SDS011;3530;52.832;10.680;2024-02-15T04:31:21;9.80;;;6.65;;
6979;SDS011;3530;52.832;10.680;2024-02-15T04:34:13;10.63;;;7.40;;
6979;SDS011;3530;52.832;10.680;2024-02-15T04:36:59;8.82;;;6.47;;
6979;SDS011;3530;52.832;10.680;2024-02-15T04:39:45;8.52;;;6.43;;
6979;SDS011;3530;52.832;10.680;2024-02-15T04:42:32;6.88;;;5.65;;
6979;SDS011;3530;52.832;10.680;2024-02-15T04:45:19;9.07;;;6.05;;
6979;SDS011;3530;52.832;10.680;2024-02-15T04:48:07;7.15;;;6.20;;
6979;SDS011;3530;52.832;10.680;2024-02-15T04:50:53;5.78;;;5.05;;
6979;SDS011;3530;52.832;10.680;2024-02-15T04:53:40;9.15;;;6.38;;
6979;SDS011;3530;52.832;10.680;2024-02-15T04:56:26;6.47;;;5.90;;
6979;SDS011;3530;52.832;10.680;2024-02-15T04:59:12;7.10;;;6.18;;
6979;SDS011;3530;52.832;10.680;2024-02-15T05:02:00;7.20;;;5.75;;
6979;SDS011;3530;52.832;10.680;2024-02-15T05:04:46;6.80;;;5.60;;
6979;SDS011;3530;52.832;10.680;2024-02-15T05:07:32;6.22;;;5.63;;
6979;SDS011;3530;52.832;10.680;2024-02-15T05:10:18;5.97;;;5.35;;
6979;SDS011;3530;52.832;10.680;2024-02-15T05:13:03;6.80;;;5.80;;
6979;SDS011;3530;52.832;10.680;2024-02-15T05:15:49;7.22;;;5.68;;
6979;SDS011;3530;52.832;10.680;2024-02-15T05:18:35;6.82;;;5.90;;
6979;SDS011;3530;52.832;10.680;2024-02-15T05:21:21;6.32;;;4.88;;
6979;SDS011;3530;52.832;10.680;2024-02-15T05:24:06;7.82;;;6.35;;
6979;SDS011;3530;52.832;10.680;2024-02-15T05:26:52;6.90;;;5.03;;
6979;SDS011;3530;52.832;10.680;2024-02-15T05:29:38;6.57;;;4.90;;
6979;SDS011;3530;52.832;10.680;2024-02-15T05:32:24;6.82;;;5.03;;
6979;SDS011;3530;52.832;10.680;2024-02-15T05:35:11;7.60;;;5.68;;
6979;SDS011;3530;52.832;10.680;2024-02-15T05:37:57;6.28;;;5.47;;
6979;SDS011;3530;52.832;10.680;2024-02-15T05:40:43;6.53;;;5.68;;
6979;SDS011;3530;52.832;10.680;2024-02-15T05:43:29;7.00;;;5.22;;
6979;SDS011;3530;52.832;10.680;2024-02-15T05:46:15;8.20;;;6.00;;
6979;SDS011;3530;52.832;10.680;2024-02-15T05:49:01;6.57;;;5.03;;
6979;SDS011;3530;52.832;10.680;2024-02-15T05:51:49;6.78;;;5.35;;
6979;SDS011;3530;52.832;10.680;2024-02-15T05:54:35;6.97;;;5.40;;
6979;SDS011;3530;52.832;10.680;2024-02-15T05:57:21;6.45;;;5.05;;
6979;SDS011;3530;52.832;10.680;2024-02-15T06:00:07;11.02;;;8.23;;
6979;SDS011;3530;52.832;10.680;2024-02-15T06:02:53;9.60;;;6.15;;
6979;SDS011;3530;52.832;10.680;2024-02-15T06:05:40;11.43;;;7.10;;
6979;SDS011;3530;52.832;10.680;2024-02-15T06:08:26;8.38;;;6.13;;
6979;SDS011;3530;52.832;10.680;2024-02-15T06:11:12;8.05;;;5.50;;
6979;SDS011;3530;52.832;10.680;2024-02-15T06:13:59;5.30;;;4.78;;
6979;SDS011;3530;52.832;10.680;2024-02-15T06:16:45;7.38;;;6.32;;
6979;SDS011;3530;52.832;10.680;2024-02-15T06:19:31;8.27;;;6.38;;
6979;SDS011;3530;52.832;10.680;2024-02-15T06:22:18;8.43;;;6.13;;
6979;SDS011;3530;52.832;10.680;2024-02-15T06:25:03;10.75;;;7.13;;
6979;SDS011;3530;52.832;10.680;2024-02-15T06:27:50;8.35;;;6.63;;
6979;SDS011;3530;52.832;10.680;2024-02-15T06:30:43;8.95;;;6.75;;
6979;SDS011;3530;52.832;10.680;2024-02-15T06:33:47;8.43;;;5.95;;
6979;SDS011;3530;52.832;10.680;2024-02-15T06:36:55;14.10;;;7.95;;
6979;SDS011;3530;52.832;10.680;2024-02-15T06:40:00;8.75;;;6.93;;
6979;SDS011;3530;52.832;10.680;2024-02-15T06:42:46;12.65;;;6.95;;
6979;SDS011;3530;52.832;10.680;2024-02-15T06:45:31;10.00;;;6.43;;
6979;SDS011;3530;52.832;10.680;2024-02-15T06:48:17;10.05;;;7.30;;
6979;SDS011;3530;52.832;10.680;2024-02-15T06:51:03;12.77;;;7.95;;
6979;SDS011;3530;52.832;10.680;2024-02-15T06:53:49;12.98;;;8.02;;
6979;SDS011;3530;52.832;10.680;2024-02-15T06:56:38;14.07;;;8.27;;
6979;SDS011;3530;52.832;10.680;2024-02-15T06:59:24;14.48;;;7.97;;
6979;SDS011;3530;52.832;10.680;2024-02-15T07:02:10;12.48;;;7.47;;
6979;SDS011;3530;52.832;10.680;2024-02-15T07:04:57;10.55;;;7.20;;
6979;SDS011;3530;52.832;10.680;2024-02-15T07:07:43;11.55;;;6.50;;
6979;SDS011;3530;52.832;10.680;2024-02-15T07:10:28;10.23;;;6.80;;
6979;SDS011;3530;52.832;10.680;2024-02-15T07:13:17;9.23;;;6.22;;
6979;SDS011;3530;52.832;10.680;2024-02-15T07:16:06;8.88;;;6.85;;
6979;SDS011;3530;52.832;10.680;2024-02-15T07:18:53;9.82;;;7.03;;
6979;SDS011;3530;52.832;10.680;2024-02-15T07:21:38;10.70;;;6.47;;
6979;SDS011;3530;52.832;10.680;2024-02-15T07:24:24;10.73;;;7.55;;
6979;SDS011;3530;52.832;10.680;2024-02-15T07:27:12;11.95;;;7.28;;
6979;SDS011;3530;52.832;10.680;2024-02-15T07:29:57;10.95;;;7.53;;
6979;SDS011;3530;52.832;10.680;2024-02-15T07:32:43;8.90;;;5.38;;
6979;SDS011;3530;52.832;10.680;2024-02-15T07:35:30;11.20;;;7.68;;
6979;SDS011;3530;52.832;10.680;2024-02-15T07:38:15;9.55;;;6.65;;
6979;SDS011;3530;52.832;10.680;2024-02-15T07:41:01;9.32;;;6.22;;
6979;SDS011;3530;52.832;10.680;2024-02-15T07:43:47;10.43;;;7.50;;
6979;SDS011;3530;52.832;10.680;2024-02-15T07:46:32;10.70;;;7.15;;
6979;SDS011;3530;52.832;10.680;2024-02-15T07:49:19;10.57;;;7.10;;
6979;SDS011;3530;52.832;10.680;2024-02-15T07:52:05;8.13;;;5.57;;
6979;SDS011;3530;52.832;10.680;2024-02-15T07:54:51;9.73;;;6.63;;
6979;SDS011;3530;52.832;10.680;2024-02-15T07:57:38;7.80;;;6.00;;
6979;SDS011;3530;52.832;10.680;2024-02-15T08:00:23;8.80;;;6.35;;
6979;SDS011;3530;52.832;10.680;2024-02-15T08:03:12;10.60;;;7.00;;
6979;SDS011;3530;52.832;10.680;2024-02-15T08:05:59;10.52;;;6.65;;
6979;SDS011;3530;52.832;10.680;2024-02-15T08:08:46;10.10;;;7.15;;
6979;SDS011;3530;52.832;10.680;2024-02-15T08:11:32;9.68;;;6.20;;
6979;SDS011;3530;52.832;10.680;2024-02-15T08:14:18;9.45;;;7.60;;
6979;SDS011;3530;52.832;10.680;2024-02-15T08:17:05;9.07;;;6.80;;
6979;SDS011;3530;52.832;10.680;2024-02-15T08:19:53;9.10;;;6.85;;
6979;SDS011;3530;52.832;10.680;2024-02-15T08:22:39;8.25;;;5.53;;
6979;SDS011;3530;52.832;10.680;2024-02-15T08:25:25;12.38;;;7.15;;
6979;SDS011;3530;52.832;10.680;2024-02-15T08:28:10;11.07;;;7.38;;
6979;SDS011;3530;52.832;10.680;2024-02-15T08:30:56;9.60;;;6.20;;
6979;SDS011;3530;52.832;10.680;2024-02-15T08:33:42;10.15;;;6.13;;
6979;SDS011;3530;52.832;10.680;2024-02-15T08:36:31;7.45;;;6.20;;
6979;SDS011;3530;52.832;10.680;2024-02-15T08:39:17;9.00;;;6.28;;
6979;SDS011;3530;52.832;10.680;2024-02-15T08:42:02;10.52;;;7.18;;
6979;SDS011;3530;52.832;10.680;2024-02-15T08:44:49;9.95;;;7.30;;
6979;SDS011;3530;52.832;10.680;2024-02-15T08:47:38;12.13;;;6.45;;
6979;SDS011;3530;52.832;10.680;2024-02-15T08:50:24;7.20;;;6.25;;
6979;SDS011;3530;52.832;10.680;2024-02-15T08:53:10;13.35;;;7.00;;
6979;SDS011;3530;52.832;10.680;2024-02-15T08:55:55;11.60;;;8.02;;
6979;SDS011;3530;52.832;10.680;2024-02-15T08:58:41;10.30;;;6.43;;
6979;SDS011;3530;52.832;10.680;2024-02-15T09:01:28;8.70;;;6.60;;
6979;SDS011;3530;52.832;10.680;2024-02-15T09:04:13;9.00;;;5.70;;
6979;SDS011;3530;52.832;10.680;2024-02-15T09:06:59;14.23;;;9.20;;
6979;SDS011;3530;52.832;10.680;2024-02-15T09:09:49;12.02;;;7.78;;
6979;SDS011;3530;52.832;10.680;2024-02-15T09:12:35;14.20;;;8.88;;
6979;SDS011;3530;52.832;10.680;2024-02-15T09:15:22;14.68;;;8.63;;
6979;SDS011;3530;52.832;10.680;2024-02-15T09:18:08;12.82;;;8.50;;
6979;SDS011;3530;52.832;10.680;2024-02-15T09:20:56;11.38;;;7.55;;
6979;SDS011;3530;52.832;10.680;2024-02-15T09:23:42;10.82;;;7.10;;
6979;SDS011;3530;52.832;10.680;2024-02-15T09:26:27;10.57;;;6.50;;
6979;SDS011;3530;52.832;10.680;2024-02-15T09:29:13;10.73;;;6.88;;
6979;SDS011;3530;52.832;10.680;2024-02-15T09:31:59;11.27;;;7.88;;
6979;SDS011;3530;52.832;10.680;2024-02-15T09:34:48;11.43;;;7.40;;
6979;SDS011;3530;52.832;10.680;2024-02-15T09:37:38;13.98;;;7.53;;
6979;SDS011;3530;52.832;10.680;2024-02-15T09:40:29;10.93;;;6.75;;
6979;SDS011;3530;52.832;10.680;2024-02-15T09:43:16;12.43;;;7.30;;
6979;SDS011;3530;52.832;10.680;2024-02-15T09:46:01;6.55;;;5.88;;
6979;SDS011;3530;52.832;10.680;2024-02-15T09:48:50;8.50;;;5.95;;
6979;SDS011;3530;52.832;10.680;2024-02-15T09:51:36;10.52;;;6.93;;
6979;SDS011;3530;52.832;10.680;2024-02-15T09:54:23;10.88;;;7.03;;
6979;SDS011;3530;52.832;10.680;2024-02-15T09:57:09;9.43;;;7.15;;
6979;SDS011;3530;52.832;10.680;2024-02-15T09:59:58;10.88;;;6.57;;
6979;SDS011;3530;52.832;10.680;2024-02-15T10:02:53;6.47;;;5.60;;
6979;SDS011;3530;52.832;10.680;2024-02-15T10:05:38;10.80;;;6.32;;
6979;SDS011;3530;52.832;10.680;2024-02-15T10:08:25;7.82;;;5.90;;
6979;SDS011;3530;52.832;10.680;2024-02-15T10:11:11;9.25;;;6.45;;
6979;SDS011;3530;52.832;10.680;2024-02-15T10:14:08;9.13;;;7.30;;
6979;SDS011;3530;52.832;10.680;2024-02-15T10:16:55;10.43;;;6.18;;
6979;SDS011;3530;52.832;10.680;2024-02-15T10:19:41;8.95;;;6.15;;
6979;SDS011;3530;52.832;10.680;2024-02-15T10:22:29;7.68;;;5.07;;
6979;SDS011;3530;52.832;10.680;2024-02-15T10:25:14;7.53;;;5.57;;
6979;SDS011;3530;52.832;10.680;2024-02-15T10:28:10;7.60;;;5.60;;
6979;SDS011;3530;52.832;10.680;2024-02-15T10:30:57;6.40;;;5.30;;
6979;SDS011;3530;52.832;10.680;2024-02-15T10:33:52;8.73;;;5.78;;
6979;SDS011;3530;52.832;10.680;2024-02-15T10:36:38;7.75;;;5.22;;
6979;SDS011;3530;52.832;10.680;2024-02-15T10:39:24;6.32;;;5.05;;
6979;SDS011;3530;52.832;10.680;2024-02-15T10:42:11;6.15;;;5.00;;
6979;SDS011;3530;52.832;10.680;2024-02-15T10:44:58;5.82;;;5.10;;
6979;SDS011;3530;52.832;10.680;2024-02-15T10:47:44;7.95;;;4.45;;
6979;SDS011;3530;52.832;10.680;2024-02-15T10:50:31;6.07;;;4.55;;
6979;SDS011;3530;52.832;10.680;2024-02-15T10:53:26;6.18;;;4.63;;
6979;SDS011;3530;52.832;10.680;2024-02-15T10:56:16;5.70;;;4.70;;
6979;SDS011;3530;52.832;10.680;2024-02-15T11:02:10;5.30;;;4.13;;
6979;SDS011;3530;52.832;10.680;2024-02-15T11:05:08;6.25;;;4.40;;
6979;SDS011;3530;52.832;10.680;2024-02-15T11:07:55;8.13;;;4.22;;
6979;SDS011;3530;52.832;10.680;2024-02-15T11:10:42;8.70;;;4.68;;
6979;SDS011;3530;52.832;10.680;2024-02-15T11:13:28;5.57;;;3.97;;
6979;SDS011;3530;52.832;10.680;2024-02-15T11:22:21;5.32;;;3.97;;
6979;SDS011;3530;52.832;10.680;2024-02-15T11:25:08;5.13;;;4.03;;
6979;SDS011;3530;52.832;10.680;2024-02-15T11:27:54;4.18;;;3.72;;
6979;SDS011;3530;52.832;10.680;2024-02-15T11:30:39;5.13;;;3.40;;
6979;SDS011;3530;52.832;10.680;2024-02-15T11:33:30;4.65;;;3.50;;
6979;SDS011;3530;52.832;10.680;2024-02-15T11:36:24;5.47;;;3.58;;
6979;SDS011;3530;52.832;10.680;2024-02-15T11:45:55;4.60;;;3.28;;
6979;SDS011;3530;52.832;10.680;2024-02-15T11:48:47;3.97;;;3.42;;
6979;SDS011;3530;52.832;10.680;2024-02-15T11:51:34;4.05;;;3.75;;
6979;SDS011;3530;52.832;10.680;2024-02-15T11:54:27;3.20;;;2.97;;
6979;SDS011;3530;52.832;10.680;2024-02-15T11:57:14;3.95;;;3.17;;
6979;SDS011;3530;52.832;10.680;2024-02-15T12:00:07;3.75;;;3.45;;
6979;SDS011;3530;52.832;10.680;2024-02-15T12:03:13;3.80;;;3.15;;
6979;SDS011;3530;52.832;10.680;2024-02-15T12:06:18;3.50;;;3.20;;
6979;SDS011;3530;52.832;10.680;2024-02-15T12:09:22;4.20;;;2.72;;
6979;SDS011;3530;52.832;10.680;2024-02-15T12:12:26;4.45;;;3.35;;
6979;SDS011;3530;52.832;10.680;2024-02-15T12:15:31;4.50;;;3.00;;
6979;SDS011;3530;52.832;10.680;2024-02-15T12:18:35;5.60;;;3.33;;
6979;SDS011;3530;52.832;10.680;2024-02-15T12:21:31;6.97;;;3.42;;
6979;SDS011;3530;52.832;10.680;2024-02-15T12:24:19;4.18;;;3.78;;
6979;SDS011;3530;52.832;10.680;2024-02-15T12:27:06;3.67;;;3.38;;
6979;SDS011;3530;52.832;10.680;2024-02-15T12:29:55;5.65;;;3.58;;
6979;SDS011;3530;52.832;10.680;2024-02-15T12:32:43;6.35;;;3.72;;
6979;SDS011;3530;52.832;10.680;2024-02-15T12:35:28;4.63;;;3.35;;
6979;SDS011;3530;52.832;10.680;2024-02-15T12:38:14;4.53;;;3.33;;
6979;SDS011;3530;52.832;10.680;2024-02-15T12:41:01;4.63;;;3.40;;
6979;SDS011;3530;52.832;10.680;2024-02-15T12:43:52;4.05;;;3.60;;
6979;SDS011;3530;52.832;10.680;2024-02-15T12:46:38;5.85;;;3.75;;
6979;SDS011;3530;52.832;10.680;2024-02-15T12:58:19;6.43;;;3.60;;
6979;SDS011;3530;52.832;10.680;2024-02-15T13:01:05;4.03;;;3.63;;
6979;SDS011;3530;52.832;10.680;2024-02-15T13:03:50;4.68;;;3.58;;
6979;SDS011;3530;52.832;10.680;2024-02-15T13:06:36;3.58;;;3.28;;
6979;SDS011;3530;52.832;10.680;2024-02-15T13:09:23;4.43;;;3.25;;
6979;SDS011;3530;52.832;10.680;2024-02-15T13:12:09;7.60;;;3.63;;
6979;SDS011;3530;52.832;10.680;2024-02-15T13:14:57;4.05;;;3.63;;
6979;SDS011;3530;52.832;10.680;2024-02-15T13:17:43;5.20;;;3.85;;
6979;SDS011;3530;52.832;10.680;2024-02-15T13:20:34;7.05;;;3.75;;
6979;SDS011;3530;52.832;10.680;2024-02-15T13:23:20;19.27;;;11.98;;
6979;SDS011;3530;52.832;10.680;2024-02-15T13:26:10;4.22;;;3.90;;
6979;SDS011;3530;52.832;10.680;2024-02-15T13:28:56;4.35;;;3.97;;
6979;SDS011;3530;52.832;10.680;2024-02-15T13:31:42;6.90;;;3.90;;
6979;SDS011;3530;52.832;10.680;2024-02-15T13:34:29;6.38;;;3.40;;
6979;SDS011;3530;52.832;10.680;2024-02-15T13:37:15;5.35;;;3.30;;
6979;SDS011;3530;52.832;10.680;2024-02-15T13:40:02;3.20;;;2.90;;
6979;SDS011;3530;52.832;10.680;2024-02-15T13:42:49;6.80;;;3.70;;
6979;SDS011;3530;52.832;10.680;2024-02-15T13:45:39;2.80;;;2.70;;
6979;SDS011;3530;52.832;10.680;2024-02-15T13:48:29;4.28;;;3.80;;
6979;SDS011;3530;52.832;10.680;2024-02-15T13:51:15;3.42;;;3.20;;
6979;SDS011;3530;52.832;10.680;2024-02-15T13:54:01;4.10;;;2.90;;
6979;SDS011;3530;52.832;10.680;2024-02-15T13:56:48;5.32;;;3.20;;
6979;SDS011;3530;52.832;10.680;2024-02-15T13:59:34;5.85;;;3.47;;
6979;SDS011;3530;52.832;10.680;2024-02-15T14:02:20;5.47;;;3.13;;
6979;SDS011;3530;52.832;10.680;2024-02-15T14:05:05;5.53;;;3.70;;
6979;SDS011;3530;52.832;10.680;2024-02-15T14:07:57;4.15;;;3.45;;
6979;SDS011;3530;52.832;10.680;2024-02-15T14:10:43;6.00;;;3.75;;
6979;SDS011;3530;52.832;10.680;2024-02-15T14:13:29;3.60;;;3.10;;
6979;SDS011;3530;52.832;10.680;2024-02-15T14:16:16;4.80;;;4.22;;
6979;SDS011;3530;52.832;10.680;2024-02-15T14:19:02;4.30;;;3.60;;
6979;SDS011;3530;52.832;10.680;2024-02-15T14:21:49;5.35;;;3.42;;
6979;SDS011;3530;52.832;10.680;2024-02-15T14:24:34;6.30;;;3.53;;
6979;SDS011;3530;52.832;10.680;2024-02-15T14:27:20;4.07;;;3.67;;
6979;SDS011;3530;52.832;10.680;2024-02-15T14:30:06;6.65;;;3.85;;
6979;SDS011;3530;52.832;10.680;2024-02-15T14:33:11;4.28;;;3.88;;
6979;SDS011;3530;52.832;10.680;2024-02-15T14:35:59;5.18;;;4.68;;
6979;SDS011;3530;52.832;10.680;2024-02-15T14:38:45;4.95;;;3.55;;
6979;SDS011;3530;52.832;10.680;2024-02-15T14:41:32;4.28;;;3.88;;
6979;SDS011;3530;52.832;10.680;2024-02-15T14:44:17;10.32;;;6.72;;
6979;SDS011;3530;52.832;10.680;2024-02-15T14:47:03;8.35;;;4.30;;
6979;SDS011;3530;52.832;10.680;2024-02-15T14:49:49;4.10;;;3.80;;
6979;SDS011;3530;52.832;10.680;2024-02-15T14:52:35;5.45;;;3.58;;
6979;SDS011;3530;52.832;10.680;2024-02-15T14:55:23;4.03;;;3.72;;
6979;SDS011;3530;52.832;10.680;2024-02-15T14:58:11;5.13;;;3.83;;
6979;SDS011;3530;52.832;10.680;2024-02-15T15:00:58;5.80;;;4.13;;
6979;SDS011;3530;52.832;10.680;2024-02-15T15:03:45;3.97;;;3.63;;
6979;SDS011;3530;52.832;10.680;2024-02-15T15:06:40;7.13;;;4.68;;
6979;SDS011;3530;52.832;10.680;2024-02-15T15:09:48;4.55;;;4.13;;
6979;SDS011;3530;52.832;10.680;2024-02-15T15:12:52;7.78;;;3.58;;
6979;SDS011;3530;52.832;10.680;2024-02-15T15:15:38;5.28;;;3.60;;
6979;SDS011;3530;52.832;10.680;2024-02-15T15:18:25;16.55;;;10.48;;
6979;SDS011;3530;52.832;10.680;2024-02-15T15:21:10;5.20;;;4.03;;
6979;SDS011;3530;52.832;10.680;2024-02-15T15:23:57;3.92;;;3.55;;
6979;SDS011;3530;52.832;10.680;2024-02-15T15:26:43;5.30;;;3.67;;
6979;SDS011;3530;52.832;10.680;2024-02-15T15:29:28;4.60;;;3.38;;
6979;SDS011;3530;52.832;10.680;2024-02-15T15:32:16;5.32;;;3.90;;
6979;SDS011;3530;52.832;10.680;2024-02-15T15:35:01;3.40;;;3.10;;
6979;SDS011;3530;52.832;10.680;2024-02-15T15:37:47;4.07;;;3.38;;
6979;SDS011;3530;52.832;10.680;2024-02-15T15:40:35;5.20;;;3.60;;
6979;SDS011;3530;52.832;10.680;2024-02-15T15:43:22;4.60;;;3.30;;
6979;SDS011;3530;52.832;10.680;2024-02-15T15:46:14;4.28;;;2.92;;
6979;SDS011;3530;52.832;10.680;2024-02-15T15:49:00;3.78;;;3.45;;
6979;SDS011;3530;52.832;10.680;2024-02-15T15:51:46;3.50;;;3.20;;
6979;SDS011;3530;52.832;10.680;2024-02-15T15:54:32;3.65;;;2.85;;
6979;SDS011;3530;52.832;10.680;2024-02-15T15:57:19;4.15;;;3.20;;
6979;SDS011;3530;52.832;10.680;2024-02-15T16:00:07;4.82;;;3.00;;
6979;SDS011;3530;52.832;10.680;2024-02-15T16:03:00;5.47;;;3.92;;
6979;SDS011;3530;52.832;10.680;2024-02-15T16:05:50;4.68;;;3.40;;
6979;SDS011;3530;52.832;10.680;2024-02-15T16:08:35;7.72;;;3.80;;
6979;SDS011;3530;52.832;10.680;2024-02-15T16:11:21;4.25;;;3.47;;
6979;SDS011;3530;52.832;10.680;2024-02-15T16:14:10;3.65;;;3.35;;
6979;SDS011;3530;52.832;10.680;2024-02-15T16:16:58;8.65;;;5.60;;
6979;SDS011;3530;52.832;10.680;2024-02-15T16:19:45;5.80;;;3.58;;
6979;SDS011;3530;52.832;10.680;2024-02-15T16:22:31;4.70;;;4.05;;
6979;SDS011;3530;52.832;10.680;2024-02-15T16:25:19;3.67;;;3.42;;
6979;SDS011;3530;52.832;10.680;2024-02-15T16:28:05;4.38;;;3.97;;
6979;SDS011;3530;52.832;10.680;2024-02-15T16:30:53;5.65;;;3.50;;
6979;SDS011;3530;52.832;10.680;2024-02-15T16:33:39;6.10;;;3.90;;
6979;SDS011;3530;52.832;10.680;2024-02-15T16:36:25;5.00;;;4.15;;
6979;SDS011;3530;52.832;10.680;2024-02-15T16:39:12;5.32;;;3.67;;
6979;SDS011;3530;52.832;10.680;2024-02-15T16:41:59;4.70;;;3.47;;
6979;SDS011;3530;52.832;10.680;2024-02-15T16:44:45;3.40;;;3.15;;
6979;SDS011;3530;52.832;10.680;2024-02-15T16:47:32;10.88;;;4.05;;
6979;SDS011;3530;52.832;10.680;2024-02-15T16:50:21;3.63;;;3.35;;
6979;SDS011;3530;52.832;10.680;2024-02-15T16:53:07;5.57;;;3.28;;
6979;SDS011;3530;52.832;10.680;2024-02-15T16:55:56;3.40;;;3.08;;
6979;SDS011;3530;52.832;10.680;2024-02-15T16:58:41;4.28;;;3.50;;
6979;SDS011;3530;52.832;10.680;2024-02-15T17:01:27;3.13;;;2.92;;
6979;SDS011;3530;52.832;10.680;2024-02-15T17:04:13;3.28;;;3.00;;
6979;SDS011;3530;52.832;10.680;2024-02-15T17:07:00;4.88;;;3.40;;
6979;SDS011;3530;52.832;10.680;2024-02-15T17:09:46;2.83;;;2.72;;
6979;SDS011;3530;52.832;10.680;2024-02-15T17:12:32;2.95;;;2.75;;
6979;SDS011;3530;52.832;10.680;2024-02-15T17:15:20;3.85;;;3.50;;
6979;SDS011;3530;52.832;10.680;2024-02-15T17:18:10;6.47;;;3.28;;
6979;SDS011;3530;52.832;10.680;2024-02-15T17:20:56;5.07;;;3.58;;
6979;SDS011;3530;52.832;10.680;2024-02-15T17:23:42;3.83;;;3.00;;
6979;SDS011;3530;52.832;10.680;2024-02-15T17:26:31;3.72;;;3.05;;